sensor_id;sensor_type;location;lat;lon;timestamp;P1;durP1;ratioP1;P2;durP2;ratioP2
51020;SDS011;38907;45.562;8.856;2022-12-28T00:02:47;83.88;;;46.55;;
51020;SDS011;38907;45.562;8.856;2022-12-28T00:07:49;88.25;;;47.20;;
51020;SDS011;38907;45.562;8.856;2022-12-28T00:12:51;87.53;;;46.50;;
51020;SDS011;38907;45.562;8.856;2022-12-28T00:17:54;78.15;;;44.53;;
51020;SDS011;38907;45.562;8.856;2022-12-28T00:22:57;78.18;;;44.38;;
51020;SDS011;38907;45.562;8.856;2022-12-28T00:27:59;134.43;;;45.83;;
51020;SDS011;38907;45.562;8.856;2022-12-28T00:33:02;76.28;;;44.28;;
51020;SDS011;38907;45.562;8.856;2022-12-28T00:38:04;141.02;;;47.00;;
51020;SDS011;38907;45.562;8.856;2022-12-28T00:43:05;157.80;;;52.70;;
51020;SDS011;38907;45.562;8.856;2022-12-28T00:48:09;104.03;;;44.13;;
51020;SDS011;38907;45.562;8.856;2022-12-28T00:53:11;111.15;;;44.33;;
51020;SDS011;38907;45.562;8.856;2022-12-28T00:58:13;87.72;;;40.65;;
51020;SDS011;38907;45.562;8.856;2022-12-28T01:03:16;85.13;;;42.80;;
51020;SDS011;38907;45.562;8.856;2022-12-28T01:08:18;76.78;;;40.25;;
51020;SDS011;38907;45.562;8.856;2022-12-28T01:13:20;106.90;;;38.53;;
51020;SDS011;38907;45.562;8.856;2022-12-28T01:18:23;55.47;;;37.22;;
51020;SDS011;38907;45.562;8.856;2022-12-28T01:23:25;59.83;;;37.42;;
51020;SDS011;38907;45.562;8.856;2022-12-28T01:28:27;58.75;;;38.28;;
51020;SDS011;38907;45.562;8.856;2022-12-28T01:33:30;61.25;;;38.60;;
51020;SDS011;38907;45.562;8.856;2022-12-28T01:38:32;59.75;;;37.88;;
51020;SDS011;38907;45.562;8.856;2022-12-28T01:43:35;58.83;;;36.83;;
51020;SDS011;38907;45.562;8.856;2022-12-28T01:48:53;61.90;;;38.88;;
51020;SDS011;38907;45.562;8.856;2022-12-28T01:54:02;64.30;;;38.05;;
51020;SDS011;38907;45.562;8.856;2022-12-28T01:59:05;63.97;;;39.10;;
51020;SDS011;38907;45.562;8.856;2022-12-28T02:04:08;64.70;;;37.45;;
51020;SDS011;38907;45.562;8.856;2022-12-28T02:14:14;64.68;;;39.03;;
51020;SDS011;38907;45.562;8.856;2022-12-28T02:19:20;67.00;;;40.53;;
51020;SDS011;38907;45.562;8.856;2022-12-28T02:24:41;63.35;;;38.33;;
51020;SDS011;38907;45.562;8.856;2022-12-28T02:30:02;70.22;;;39.95;;
51020;SDS011;38907;45.562;8.856;2022-12-28T02:35:07;71.32;;;40.00;;
51020;SDS011;38907;45.562;8.856;2022-12-28T02:40:16;70.35;;;39.58;;
51020;SDS011;38907;45.562;8.856;2022-12-28T02:45:30;67.25;;;40.58;;
51020;SDS011;38907;45.562;8.856;2022-12-28T02:50:57;73.85;;;40.38;;
51020;SDS011;38907;45.562;8.856;2022-12-28T02:56:09;68.25;;;38.88;;
51020;SDS011;38907;45.562;8.856;2022-12-28T03:01:29;69.63;;;40.17;;
51020;SDS011;38907;45.562;8.856;2022-12-28T03:06:47;65.25;;;38.85;;
51020;SDS011;38907;45.562;8.856;2022-12-28T03:12:15;66.30;;;38.63;;
51020;SDS011;38907;45.562;8.856;2022-12-28T03:17:25;67.63;;;39.05;;
51020;SDS011;38907;45.562;8.856;2022-12-28T03:22:46;73.53;;;37.90;;
51020;SDS011;38907;45.562;8.856;2022-12-28T03:28:07;64.95;;;39.03;;
51020;SDS011;38907;45.562;8.856;2022-12-28T03:33:32;63.63;;;37.53;;
51020;SDS011;38907;45.562;8.856;2022-12-28T03:38:36;71.00;;;40.40;;
51020;SDS011;38907;45.562;8.856;2022-12-28T03:43:48;63.55;;;38.35;;
51020;SDS011;38907;45.562;8.856;2022-12-28T03:48:55;60.38;;;35.75;;
51020;SDS011;38907;45.562;8.856;2022-12-28T03:53:59;66.05;;;36.30;;
51020;SDS011;38907;45.562;8.856;2022-12-28T03:59:01;61.90;;;36.05;;
51020;SDS011;38907;45.562;8.856;2022-12-28T04:04:04;61.90;;;36.50;;
51020;SDS011;38907;45.562;8.856;2022-12-28T04:09:06;59.28;;;34.92;;
51020;SDS011;38907;45.562;8.856;2022-12-28T04:14:08;56.17;;;33.92;;
51020;SDS011;38907;45.562;8.856;2022-12-28T04:19:11;64.18;;;35.38;;
51020;SDS011;38907;45.562;8.856;2022-12-28T04:24:13;59.08;;;33.85;;
51020;SDS011;38907;45.562;8.856;2022-12-28T04:29:15;58.88;;;33.28;;
51020;SDS011;38907;45.562;8.856;2022-12-28T04:34:18;61.95;;;34.97;;
51020;SDS011;38907;45.562;8.856;2022-12-28T04:39:20;60.92;;;34.55;;
51020;SDS011;38907;45.562;8.856;2022-12-28T04:44:21;58.17;;;35.78;;
51020;SDS011;38907;45.562;8.856;2022-12-28T04:49:25;64.20;;;36.60;;
51020;SDS011;38907;45.562;8.856;2022-12-28T04:54:26;59.00;;;34.03;;
51020;SDS011;38907;45.562;8.856;2022-12-28T04:59:28;57.25;;;33.97;;
51020;SDS011;38907;45.562;8.856;2022-12-28T05:04:32;56.85;;;32.38;;
51020;SDS011;38907;45.562;8.856;2022-12-28T05:09:33;50.47;;;30.17;;
51020;SDS011;38907;45.562;8.856;2022-12-28T05:14:35;51.28;;;30.27;;
51020;SDS011;38907;45.562;8.856;2022-12-28T05:19:38;54.85;;;29.38;;
51020;SDS011;38907;45.562;8.856;2022-12-28T05:24:40;48.67;;;28.40;;
51020;SDS011;38907;45.562;8.856;2022-12-28T05:29:42;47.30;;;29.27;;
51020;SDS011;38907;45.562;8.856;2022-12-28T05:34:45;51.38;;;28.55;;
51020;SDS011;38907;45.562;8.856;2022-12-28T05:39:47;45.92;;;28.52;;
51020;SDS011;38907;45.562;8.856;2022-12-28T05:44:49;46.90;;;28.15;;
51020;SDS011;38907;45.562;8.856;2022-12-28T05:49:52;43.53;;;28.92;;
51020;SDS011;38907;45.562;8.856;2022-12-28T05:54:54;38.92;;;25.55;;
51020;SDS011;38907;45.562;8.856;2022-12-28T05:59:56;37.83;;;23.58;;
51020;SDS011;38907;45.562;8.856;2022-12-28T06:04:59;40.92;;;23.75;;
51020;SDS011;38907;45.562;8.856;2022-12-28T06:10:01;34.25;;;23.33;;
51020;SDS011;38907;45.562;8.856;2022-12-28T06:15:03;38.78;;;24.00;;
51020;SDS011;38907;45.562;8.856;2022-12-28T06:20:08;35.03;;;23.33;;
51020;SDS011;38907;45.562;8.856;2022-12-28T06:25:10;33.83;;;22.00;;
51020;SDS011;38907;45.562;8.856;2022-12-28T06:30:12;34.85;;;22.38;;
51020;SDS011;38907;45.562;8.856;2022-12-28T06:35:16;34.92;;;22.75;;
51020;SDS011;38907;45.562;8.856;2022-12-28T06:45:19;36.75;;;22.70;;
51020;SDS011;38907;45.562;8.856;2022-12-28T06:50:23;35.13;;;21.88;;
51020;SDS011;38907;45.562;8.856;2022-12-28T06:55:24;30.67;;;20.05;;
51020;SDS011;38907;45.562;8.856;2022-12-28T07:00:26;29.98;;;20.15;;
51020;SDS011;38907;45.562;8.856;2022-12-28T07:05:31;34.38;;;22.73;;
51020;SDS011;38907;45.562;8.856;2022-12-28T07:10:33;40.42;;;23.65;;
51020;SDS011;38907;45.562;8.856;2022-12-28T07:15:36;38.03;;;21.60;;
51020;SDS011;38907;45.562;8.856;2022-12-28T07:20:39;30.35;;;20.17;;
51020;SDS011;38907;45.562;8.856;2022-12-28T07:25:41;32.45;;;20.83;;
51020;SDS011;38907;45.562;8.856;2022-12-28T07:30:43;33.83;;;21.95;;
51020;SDS011;38907;45.562;8.856;2022-12-28T07:35:46;30.52;;;21.00;;
51020;SDS011;38907;45.562;8.856;2022-12-28T07:40:47;33.97;;;21.83;;
51020;SDS011;38907;45.562;8.856;2022-12-28T07:45:57;30.33;;;19.98;;
51020;SDS011;38907;45.562;8.856;2022-12-28T07:51:05;36.33;;;21.52;;
51020;SDS011;38907;45.562;8.856;2022-12-28T07:56:09;43.00;;;28.25;;
51020;SDS011;38907;45.562;8.856;2022-12-28T08:01:12;40.22;;;26.65;;
51020;SDS011;38907;45.562;8.856;2022-12-28T08:06:18;37.03;;;26.35;;
51020;SDS011;38907;45.562;8.856;2022-12-28T08:11:23;38.25;;;21.42;;
51020;SDS011;38907;45.562;8.856;2022-12-28T08:21:30;31.15;;;20.20;;
51020;SDS011;38907;45.562;8.856;2022-12-28T08:26:34;33.25;;;21.35;;
51020;SDS011;38907;45.562;8.856;2022-12-28T08:31:38;38.10;;;22.88;;
51020;SDS011;38907;45.562;8.856;2022-12-28T08:36:42;34.33;;;22.35;;
51020;SDS011;38907;45.562;8.856;2022-12-28T08:41:44;34.40;;;21.70;;
51020;SDS011;38907;45.562;8.856;2022-12-28T08:46:46;35.20;;;22.33;;
51020;SDS011;38907;45.562;8.856;2022-12-28T08:51:49;35.50;;;21.98;;
51020;SDS011;38907;45.562;8.856;2022-12-28T08:56:51;34.35;;;22.80;;
51020;SDS011;38907;45.562;8.856;2022-12-28T09:01:53;44.13;;;25.92;;
51020;SDS011;38907;45.562;8.856;2022-12-28T09:06:57;45.22;;;26.23;;
51020;SDS011;38907;45.562;8.856;2022-12-28T09:11:58;53.72;;;33.15;;
51020;SDS011;38907;45.562;8.856;2022-12-28T09:17:00;46.47;;;28.17;;
51020;SDS011;38907;45.562;8.856;2022-12-28T09:22:04;36.22;;;21.77;;
51020;SDS011;38907;45.562;8.856;2022-12-28T09:27:06;33.03;;;20.55;;
51020;SDS011;38907;45.562;8.856;2022-12-28T09:32:07;34.67;;;21.50;;
51020;SDS011;38907;45.562;8.856;2022-12-28T09:37:11;34.92;;;21.48;;
51020;SDS011;38907;45.562;8.856;2022-12-28T09:42:14;34.30;;;22.33;;
51020;SDS011;38907;45.562;8.856;2022-12-28T09:47:25;37.75;;;23.88;;
51020;SDS011;38907;45.562;8.856;2022-12-28T09:52:34;36.63;;;22.90;;
51020;SDS011;38907;45.562;8.856;2022-12-28T09:57:42;40.20;;;25.85;;
51020;SDS011;38907;45.562;8.856;2022-12-28T10:02:48;37.35;;;23.52;;
51020;SDS011;38907;45.562;8.856;2022-12-28T10:08:00;42.67;;;25.65;;
51020;SDS011;38907;45.562;8.856;2022-12-28T10:13:06;41.92;;;25.00;;
51020;SDS011;38907;45.562;8.856;2022-12-28T10:18:15;40.65;;;26.13;;
51020;SDS011;38907;45.562;8.856;2022-12-28T10:23:25;45.38;;;26.40;;
51020;SDS011;38907;45.562;8.856;2022-12-28T10:28:30;43.42;;;28.00;;
51020;SDS011;38907;45.562;8.856;2022-12-28T10:33:39;47.97;;;28.23;;
51020;SDS011;38907;45.562;8.856;2022-12-28T10:38:48;48.20;;;29.35;;
51020;SDS011;38907;45.562;8.856;2022-12-28T10:43:51;54.95;;;30.23;;
51020;SDS011;38907;45.562;8.856;2022-12-28T10:48:54;54.88;;;30.77;;
51020;SDS011;38907;45.562;8.856;2022-12-28T10:53:58;55.30;;;32.13;;
51020;SDS011;38907;45.562;8.856;2022-12-28T10:59:18;58.85;;;33.67;;
51020;SDS011;38907;45.562;8.856;2022-12-28T11:04:23;58.00;;;33.15;;
51020;SDS011;38907;45.562;8.856;2022-12-28T11:09:28;59.70;;;35.07;;
51020;SDS011;38907;45.562;8.856;2022-12-28T11:14:32;65.85;;;37.22;;
51020;SDS011;38907;45.562;8.856;2022-12-28T11:19:35;68.68;;;37.33;;
51020;SDS011;38907;45.562;8.856;2022-12-28T11:24:39;62.88;;;35.50;;
51020;SDS011;38907;45.562;8.856;2022-12-28T11:29:41;63.88;;;37.15;;
51020;SDS011;38907;45.562;8.856;2022-12-28T11:34:46;69.53;;;39.05;;
51020;SDS011;38907;45.562;8.856;2022-12-28T11:39:50;71.25;;;36.67;;
51020;SDS011;38907;45.562;8.856;2022-12-28T11:44:54;59.20;;;33.53;;
51020;SDS011;38907;45.562;8.856;2022-12-28T11:49:56;59.67;;;32.58;;
51020;SDS011;38907;45.562;8.856;2022-12-28T11:55:49;56.60;;;32.80;;
51020;SDS011;38907;45.562;8.856;2022-12-28T12:01:03;55.08;;;32.60;;
51020;SDS011;38907;45.562;8.856;2022-12-28T12:06:05;57.17;;;33.15;;
51020;SDS011;38907;45.562;8.856;2022-12-28T12:11:25;62.60;;;34.35;;
51020;SDS011;38907;45.562;8.856;2022-12-28T12:16:34;59.13;;;32.83;;
51020;SDS011;38907;45.562;8.856;2022-12-28T12:21:52;56.17;;;31.63;;
51020;SDS011;38907;45.562;8.856;2022-12-28T12:27:01;56.60;;;32.20;;
51020;SDS011;38907;45.562;8.856;2022-12-28T12:32:13;56.87;;;30.27;;
51020;SDS011;38907;45.562;8.856;2022-12-28T12:37:27;50.13;;;30.30;;
51020;SDS011;38907;45.562;8.856;2022-12-28T12:42:41;50.33;;;28.60;;
51020;SDS011;38907;45.562;8.856;2022-12-28T12:47:58;52.83;;;29.85;;
51020;SDS011;38907;45.562;8.856;2022-12-28T12:53:15;49.97;;;29.58;;
51020;SDS011;38907;45.562;8.856;2022-12-28T12:58:31;56.13;;;30.52;;
51020;SDS011;38907;45.562;8.856;2022-12-28T13:03:46;50.83;;;29.95;;
51020;SDS011;38907;45.562;8.856;2022-12-28T13:13:54;54.42;;;29.42;;
51020;SDS011;38907;45.562;8.856;2022-12-28T13:18:57;60.83;;;30.92;;
51020;SDS011;38907;45.562;8.856;2022-12-28T13:24:00;61.08;;;30.52;;
51020;SDS011;38907;45.562;8.856;2022-12-28T13:29:08;53.35;;;30.48;;
51020;SDS011;38907;45.562;8.856;2022-12-28T13:34:13;57.25;;;31.33;;
51020;SDS011;38907;45.562;8.856;2022-12-28T13:39:17;62.05;;;32.75;;
51020;SDS011;38907;45.562;8.856;2022-12-28T13:44:23;59.92;;;32.10;;
51020;SDS011;38907;45.562;8.856;2022-12-28T13:49:37;67.57;;;33.17;;
51020;SDS011;38907;45.562;8.856;2022-12-28T13:54:43;61.33;;;33.70;;
51020;SDS011;38907;45.562;8.856;2022-12-28T13:59:50;55.55;;;31.98;;
51020;SDS011;38907;45.562;8.856;2022-12-28T14:04:54;58.97;;;32.30;;
51020;SDS011;38907;45.562;8.856;2022-12-28T14:09:56;63.75;;;33.47;;
51020;SDS011;38907;45.562;8.856;2022-12-28T14:15:00;68.50;;;34.80;;
51020;SDS011;38907;45.562;8.856;2022-12-28T14:20:02;79.10;;;44.70;;
51020;SDS011;38907;45.562;8.856;2022-12-28T14:25:05;83.10;;;47.53;;
51020;SDS011;38907;45.562;8.856;2022-12-28T14:30:20;86.82;;;45.95;;
51020;SDS011;38907;45.562;8.856;2022-12-28T14:35:24;91.07;;;45.70;;
51020;SDS011;38907;45.562;8.856;2022-12-28T14:40:29;79.68;;;45.88;;
51020;SDS011;38907;45.562;8.856;2022-12-28T14:45:36;89.32;;;48.38;;
51020;SDS011;38907;45.562;8.856;2022-12-28T14:50:52;83.40;;;47.28;;
51020;SDS011;38907;45.562;8.856;2022-12-28T14:55:58;88.70;;;49.17;;
51020;SDS011;38907;45.562;8.856;2022-12-28T15:01:04;87.78;;;47.92;;
51020;SDS011;38907;45.562;8.856;2022-12-28T15:06:08;82.78;;;45.83;;
51020;SDS011;38907;45.562;8.856;2022-12-28T15:11:10;87.60;;;46.08;;
51020;SDS011;38907;45.562;8.856;2022-12-28T15:16:14;90.55;;;45.95;;
51020;SDS011;38907;45.562;8.856;2022-12-28T15:21:18;83.80;;;45.65;;
51020;SDS011;38907;45.562;8.856;2022-12-28T15:26:22;85.35;;;47.15;;
51020;SDS011;38907;45.562;8.856;2022-12-28T15:31:28;90.90;;;47.85;;
51020;SDS011;38907;45.562;8.856;2022-12-28T15:36:30;92.85;;;48.67;;
51020;SDS011;38907;45.562;8.856;2022-12-28T15:41:31;94.45;;;46.72;;
51020;SDS011;38907;45.562;8.856;2022-12-28T15:46:50;98.72;;;49.22;;
51020;SDS011;38907;45.562;8.856;2022-12-28T15:51:52;94.53;;;46.65;;
51020;SDS011;38907;45.562;8.856;2022-12-28T15:56:54;95.50;;;48.55;;
51020;SDS011;38907;45.562;8.856;2022-12-28T16:01:58;98.80;;;49.13;;
51020;SDS011;38907;45.562;8.856;2022-12-28T16:07:00;94.85;;;48.03;;
51020;SDS011;38907;45.562;8.856;2022-12-28T16:12:02;93.30;;;45.78;;
51020;SDS011;38907;45.562;8.856;2022-12-28T16:17:06;89.30;;;46.15;;
51020;SDS011;38907;45.562;8.856;2022-12-28T16:22:07;90.55;;;45.70;;
51020;SDS011;38907;45.562;8.856;2022-12-28T16:27:09;82.75;;;44.58;;
51020;SDS011;38907;45.562;8.856;2022-12-28T16:32:12;82.72;;;43.05;;
51020;SDS011;38907;45.562;8.856;2022-12-28T16:37:14;88.88;;;44.83;;
51020;SDS011;38907;45.562;8.856;2022-12-28T16:42:17;88.00;;;45.35;;
51020;SDS011;38907;45.562;8.856;2022-12-28T16:47:20;77.82;;;44.15;;
51020;SDS011;38907;45.562;8.856;2022-12-28T16:52:22;84.65;;;44.22;;
51020;SDS011;38907;45.562;8.856;2022-12-28T16:57:24;84.38;;;43.45;;
51020;SDS011;38907;45.562;8.856;2022-12-28T17:02:27;79.57;;;41.72;;
51020;SDS011;38907;45.562;8.856;2022-12-28T17:07:29;81.35;;;42.30;;
51020;SDS011;38907;45.562;8.856;2022-12-28T17:12:31;82.80;;;43.20;;
51020;SDS011;38907;45.562;8.856;2022-12-28T17:17:34;85.72;;;42.55;;
51020;SDS011;38907;45.562;8.856;2022-12-28T17:22:36;79.35;;;42.78;;
51020;SDS011;38907;45.562;8.856;2022-12-28T17:27:38;84.78;;;42.63;;
51020;SDS011;38907;45.562;8.856;2022-12-28T17:32:41;79.93;;;42.50;;
51020;SDS011;38907;45.562;8.856;2022-12-28T17:37:43;79.85;;;42.30;;
51020;SDS011;38907;45.562;8.856;2022-12-28T17:42:45;80.47;;;41.17;;
51020;SDS011;38907;45.562;8.856;2022-12-28T17:47:48;82.80;;;43.55;;
51020;SDS011;38907;45.562;8.856;2022-12-28T17:52:50;83.85;;;42.78;;
51020;SDS011;38907;45.562;8.856;2022-12-28T17:57:52;78.88;;;42.22;;
51020;SDS011;38907;45.562;8.856;2022-12-28T18:02:55;76.32;;;41.90;;
51020;SDS011;38907;45.562;8.856;2022-12-28T18:07:57;79.13;;;42.05;;
51020;SDS011;38907;45.562;8.856;2022-12-28T18:12:59;83.22;;;40.75;;
51020;SDS011;38907;45.562;8.856;2022-12-28T18:18:02;74.53;;;40.20;;
51020;SDS011;38907;45.562;8.856;2022-12-28T18:28:06;79.88;;;44.47;;
51020;SDS011;38907;45.562;8.856;2022-12-28T18:33:09;80.50;;;42.20;;
51020;SDS011;38907;45.562;8.856;2022-12-28T18:38:11;79.75;;;41.85;;
51020;SDS011;38907;45.562;8.856;2022-12-28T18:43:13;73.07;;;40.00;;
51020;SDS011;38907;45.562;8.856;2022-12-28T18:48:17;72.93;;;39.85;;
51020;SDS011;38907;45.562;8.856;2022-12-28T18:53:18;73.05;;;38.78;;
51020;SDS011;38907;45.562;8.856;2022-12-28T18:58:20;78.40;;;42.30;;
51020;SDS011;38907;45.562;8.856;2022-12-28T19:03:24;76.18;;;41.92;;
51020;SDS011;38907;45.562;8.856;2022-12-28T19:08:25;78.38;;;41.95;;
51020;SDS011;38907;45.562;8.856;2022-12-28T19:13:27;83.75;;;43.20;;
51020;SDS011;38907;45.562;8.856;2022-12-28T19:18:34;76.40;;;42.38;;
51020;SDS011;38907;45.562;8.856;2022-12-28T19:23:36;75.28;;;40.47;;
51020;SDS011;38907;45.562;8.856;2022-12-28T19:28:38;70.25;;;39.95;;
51020;SDS011;38907;45.562;8.856;2022-12-28T19:33:41;85.72;;;42.35;;
51020;SDS011;38907;45.562;8.856;2022-12-28T19:38:43;79.70;;;40.40;;
51020;SDS011;38907;45.562;8.856;2022-12-28T19:43:46;87.57;;;44.08;;
51020;SDS011;38907;45.562;8.856;2022-12-28T19:48:52;108.22;;;52.78;;
51020;SDS011;38907;45.562;8.856;2022-12-28T19:53:53;76.15;;;41.58;;
51020;SDS011;38907;45.562;8.856;2022-12-28T19:58:55;77.55;;;40.55;;
51020;SDS011;38907;45.562;8.856;2022-12-28T20:03:59;73.60;;;39.47;;
51020;SDS011;38907;45.562;8.856;2022-12-28T20:09:00;85.10;;;44.55;;
51020;SDS011;38907;45.562;8.856;2022-12-28T20:14:03;95.35;;;43.40;;
51020;SDS011;38907;45.562;8.856;2022-12-28T20:19:06;86.00;;;44.78;;
51020;SDS011;38907;45.562;8.856;2022-12-28T20:24:09;76.95;;;42.10;;
51020;SDS011;38907;45.562;8.856;2022-12-28T20:29:12;93.63;;;47.90;;
51020;SDS011;38907;45.562;8.856;2022-12-28T20:39:18;94.35;;;47.13;;
51020;SDS011;38907;45.562;8.856;2022-12-28T20:44:21;85.57;;;46.53;;
51020;SDS011;38907;45.562;8.856;2022-12-28T20:49:27;93.22;;;45.67;;
51020;SDS011;38907;45.562;8.856;2022-12-28T20:54:30;82.28;;;45.35;;
51020;SDS011;38907;45.562;8.856;2022-12-28T20:59:32;86.20;;;45.30;;
51020;SDS011;38907;45.562;8.856;2022-12-28T21:04:36;94.90;;;45.83;;
51020;SDS011;38907;45.562;8.856;2022-12-28T21:09:37;97.10;;;48.28;;
51020;SDS011;38907;45.562;8.856;2022-12-28T21:14:40;95.95;;;50.30;;
51020;SDS011;38907;45.562;8.856;2022-12-28T21:19:43;98.57;;;49.38;;
51020;SDS011;38907;45.562;8.856;2022-12-28T21:24:46;95.05;;;48.67;;
51020;SDS011;38907;45.562;8.856;2022-12-28T21:29:48;87.57;;;46.10;;
51020;SDS011;38907;45.562;8.856;2022-12-28T21:34:51;78.72;;;41.35;;
51020;SDS011;38907;45.562;8.856;2022-12-28T21:39:53;81.72;;;43.30;;
51020;SDS011;38907;45.562;8.856;2022-12-28T21:44:55;82.38;;;42.47;;
51020;SDS011;38907;45.562;8.856;2022-12-28T21:49:58;86.28;;;44.13;;
51020;SDS011;38907;45.562;8.856;2022-12-28T21:55:00;83.10;;;43.72;;
51020;SDS011;38907;45.562;8.856;2022-12-28T22:00:23;83.55;;;43.40;;
51020;SDS011;38907;45.562;8.856;2022-12-28T22:05:43;82.57;;;41.83;;
51020;SDS011;38907;45.562;8.856;2022-12-28T22:11:04;96.47;;;43.25;;
51020;SDS011;38907;45.562;8.856;2022-12-28T22:16:23;84.10;;;42.67;;
51020;SDS011;38907;45.562;8.856;2022-12-28T22:21:26;88.65;;;44.38;;
51020;SDS011;38907;45.562;8.856;2022-12-28T22:31:30;74.88;;;40.75;;
51020;SDS011;38907;45.562;8.856;2022-12-28T22:36:34;81.90;;;40.35;;
51020;SDS011;38907;45.562;8.856;2022-12-28T22:41:35;74.53;;;39.67;;
51020;SDS011;38907;45.562;8.856;2022-12-28T22:46:38;88.40;;;43.05;;
51020;SDS011;38907;45.562;8.856;2022-12-28T22:51:41;83.45;;;42.63;;
51020;SDS011;38907;45.562;8.856;2022-12-28T22:56:43;91.20;;;46.30;;
51020;SDS011;38907;45.562;8.856;2022-12-28T23:01:45;88.50;;;45.63;;
51020;SDS011;38907;45.562;8.856;2022-12-28T23:06:48;93.80;;;44.45;;
51020;SDS011;38907;45.562;8.856;2022-12-28T23:11:50;91.30;;;43.92;;
51020;SDS011;38907;45.562;8.856;2022-12-28T23:16:52;94.78;;;45.03;;
51020;SDS011;38907;45.562;8.856;2022-12-28T23:21:56;97.00;;;47.60;;
51020;SDS011;38907;45.562;8.856;2022-12-28T23:27:15;102.85;;;48.35;;
51020;SDS011;38907;45.562;8.856;2022-12-28T23:32:20;96.28;;;47.55;;
51020;SDS011;38907;45.562;8.856;2022-12-28T23:37:23;100.72;;;46.67;;
51020;SDS011;38907;45.562;8.856;2022-12-28T23:42:25;92.63;;;46.40;;
51020;SDS011;38907;45.562;8.856;2022-12-28T23:47:26;96.45;;;46.40;;
51020;SDS011;38907;45.562;8.856;2022-12-28T23:52:30;94.93;;;46.53;;
